sensor_id;sensor_type;location;lat;lon;timestamp;pressure;altitude;pressure_sealevel;temperature;humidity
46223;BME280;31943;51.410;7.564;2023-07-08T00:01:19;100441.06;;;19.32;53.41
46223;BME280;31943;51.410;7.564;2023-07-08T00:03:49;100432.25;;;19.33;53.76
46223;BME280;31943;51.410;7.564;2023-07-08T00:06:18;100432.31;;;19.30;53.82
46223;BME280;31943;51.410;7.564;2023-07-08T00:08:43;100428.75;;;19.31;54.02
46223;BME280;31943;51.410;7.564;2023-07-08T00:11:10;100426.13;;;19.31;54.38
46223;BME280;31943;51.410;7.564;2023-07-08T00:13:38;100431.34;;;19.32;54.56
46223;BME280;31943;51.410;7.564;2023-07-08T00:16:04;100432.28;;;19.31;55.14
46223;BME280;31943;51.410;7.564;2023-07-08T00:18:30;100422.59;;;19.30;55.14
46223;BME280;31943;51.410;7.564;2023-07-08T00:20:55;100423.47;;;19.31;55.00
46223;BME280;31943;51.410;7.564;2023-07-08T00:23:21;100418.19;;;19.31;55.16
46223;BME280;31943;51.410;7.564;2023-07-08T00:25:47;100418.19;;;19.31;55.58
46223;BME280;31943;51.410;7.564;2023-07-08T00:28:16;100423.47;;;19.31;55.22
46223;BME280;31943;51.410;7.564;2023-07-08T00:30:45;100420.75;;;19.34;55.62
46223;BME280;31943;51.410;7.564;2023-07-08T00:33:11;100423.38;;;19.34;55.62
46223;BME280;31943;51.410;7.564;2023-07-08T00:35:38;100417.19;;;19.35;55.52
46223;BME280;31943;51.410;7.564;2023-07-08T00:38:12;100415.41;;;19.35;54.95
46223;BME280;31943;51.410;7.564;2023-07-08T00:40:48;100416.25;;;19.38;55.27
46223;BME280;31943;51.410;7.564;2023-07-08T00:43:17;100411.81;;;19.38;55.34
46223;BME280;31943;51.410;7.564;2023-07-08T00:45:47;100415.28;;;19.40;55.63
46223;BME280;31943;51.410;7.564;2023-07-08T00:48:21;100416.22;;;19.39;56.09
46223;BME280;31943;51.410;7.564;2023-07-08T00:50:48;100422.41;;;19.38;55.96
46223;BME280;31943;51.410;7.564;2023-07-08T00:53:32;100414.47;;;19.38;56.16
46223;BME280;31943;51.410;7.564;2023-07-08T00:56:04;100411.97;;;19.32;56.05
46223;BME280;31943;51.410;7.564;2023-07-08T00:58:36;100411.06;;;19.33;55.91
46223;BME280;31943;51.410;7.564;2023-07-08T01:01:05;100414.66;;;19.30;56.07
46223;BME280;31943;51.410;7.564;2023-07-08T01:03:37;100409.34;;;19.30;56.47
46223;BME280;31943;51.410;7.564;2023-07-08T01:06:07;100412.06;;;19.29;56.63
46223;BME280;31943;51.410;7.564;2023-07-08T01:08:34;100399.75;;;19.26;56.48
46223;BME280;31943;51.410;7.564;2023-07-08T01:11:02;100399.75;;;19.26;55.72
46223;BME280;31943;51.410;7.564;2023-07-08T01:13:33;100396.25;;;19.26;56.22
46223;BME280;31943;51.410;7.564;2023-07-08T01:16:03;100387.53;;;19.21;56.22
46223;BME280;31943;51.410;7.564;2023-07-08T01:18:31;100400.84;;;19.17;56.10
46223;BME280;31943;51.410;7.564;2023-07-08T01:21:02;100391.19;;;19.15;55.97
46223;BME280;31943;51.410;7.564;2023-07-08T01:23:29;100385.97;;;19.12;55.90
46223;BME280;31943;51.410;7.564;2023-07-08T01:25:55;100383.41;;;19.09;55.78
46223;BME280;31943;51.410;7.564;2023-07-08T01:28:22;100381.72;;;19.05;56.09
46223;BME280;31943;51.410;7.564;2023-07-08T01:30:48;100372.13;;;19.01;56.11
46223;BME280;31943;51.410;7.564;2023-07-08T01:33:17;100374.84;;;18.98;55.92
46223;BME280;31943;51.410;7.564;2023-07-08T01:35:45;100372.31;;;18.91;55.76
46223;BME280;31943;51.410;7.564;2023-07-08T01:38:14;100367.97;;;18.90;55.50
46223;BME280;31943;51.410;7.564;2023-07-08T01:40:51;100373.31;;;18.87;55.56
46223;BME280;31943;51.410;7.564;2023-07-08T01:43:17;100368.13;;;18.83;55.68
46223;BME280;31943;51.410;7.564;2023-07-08T01:45:43;100365.56;;;18.78;55.60
46223;BME280;31943;51.410;7.564;2023-07-08T01:48:11;100367.31;;;18.77;55.49
46223;BME280;31943;51.410;7.564;2023-07-08T01:50:42;100367.41;;;18.74;55.54
46223;BME280;31943;51.410;7.564;2023-07-08T01:53:16;100368.38;;;18.70;55.33
46223;BME280;31943;51.410;7.564;2023-07-08T01:55:41;100369.38;;;18.65;55.25
46223;BME280;31943;51.410;7.564;2023-07-08T01:58:09;100358.81;;;18.63;55.23
46223;BME280;31943;51.410;7.564;2023-07-08T02:00:35;100357.16;;;18.59;55.28
46223;BME280;31943;51.410;7.564;2023-07-08T02:03:01;100352.84;;;18.55;55.23
46223;BME280;31943;51.410;7.564;2023-07-08T02:05:27;100348.53;;;18.49;55.08
46223;BME280;31943;51.410;7.564;2023-07-08T02:07:52;100346.00;;;18.45;55.16
46223;BME280;31943;51.410;7.564;2023-07-08T02:10:18;100343.41;;;18.42;54.96
46223;BME280;31943;51.410;7.564;2023-07-08T02:12:44;100347.91;;;18.36;55.35
46223;BME280;31943;51.410;7.564;2023-07-08T02:15:13;100345.31;;;18.35;54.91
46223;BME280;31943;51.410;7.564;2023-07-08T02:17:39;100354.16;;;18.32;55.02
46223;BME280;31943;51.410;7.564;2023-07-08T02:20:05;100348.03;;;18.30;55.03
46223;BME280;31943;51.410;7.564;2023-07-08T02:22:31;100348.13;;;18.27;54.98
46223;BME280;31943;51.410;7.564;2023-07-08T02:24:58;100344.66;;;18.25;55.33
46223;BME280;31943;51.410;7.564;2023-07-08T02:27:23;100347.34;;;18.22;55.06
46223;BME280;31943;51.410;7.564;2023-07-08T02:29:49;100335.13;;;18.16;55.38
46223;BME280;31943;51.410;7.564;2023-07-08T02:32:17;100343.13;;;18.12;55.46
46223;BME280;31943;51.410;7.564;2023-07-08T02:34:43;100346.75;;;18.08;55.30
46223;BME280;31943;51.410;7.564;2023-07-08T02:37:08;100331.81;;;18.05;55.36
46223;BME280;31943;51.410;7.564;2023-07-08T02:39:34;100338.03;;;18.03;55.16
46223;BME280;31943;51.410;7.564;2023-07-08T02:42:00;100338.06;;;18.01;55.23
46223;BME280;31943;51.410;7.564;2023-07-08T02:44:26;100334.56;;;18.01;55.36
46223;BME280;31943;51.410;7.564;2023-07-08T02:46:52;100332.84;;;17.98;55.44
46223;BME280;31943;51.410;7.564;2023-07-08T02:49:20;100335.50;;;17.96;55.57
46223;BME280;31943;51.410;7.564;2023-07-08T02:51:46;100338.25;;;17.92;55.30
46223;BME280;31943;51.410;7.564;2023-07-08T02:54:12;100334.72;;;17.91;55.34
46223;BME280;31943;51.410;7.564;2023-07-08T02:56:38;100333.94;;;17.88;55.12
46223;BME280;31943;51.410;7.564;2023-07-08T02:59:08;100334.88;;;17.82;55.46
46223;BME280;31943;51.410;7.564;2023-07-08T03:01:34;100336.72;;;17.77;55.16
46223;BME280;31943;51.410;7.564;2023-07-08T03:04:00;100335.03;;;17.73;55.54
46223;BME280;31943;51.410;7.564;2023-07-08T03:06:28;100333.31;;;17.70;55.45
46223;BME280;31943;51.410;7.564;2023-07-08T03:08:53;100332.41;;;17.71;55.44
46223;BME280;31943;51.410;7.564;2023-07-08T03:11:19;100339.50;;;17.68;55.59
46223;BME280;31943;51.410;7.564;2023-07-08T03:13:45;100334.22;;;17.68;55.86
46223;BME280;31943;51.410;7.564;2023-07-08T03:16:10;100336.09;;;17.64;55.76
46223;BME280;31943;51.410;7.564;2023-07-08T03:18:37;100330.03;;;17.57;56.12
46223;BME280;31943;51.410;7.564;2023-07-08T03:21:04;100333.56;;;17.56;55.71
46223;BME280;31943;51.410;7.564;2023-07-08T03:23:31;100336.22;;;17.55;55.93
46223;BME280;31943;51.410;7.564;2023-07-08T03:25:57;100333.63;;;17.52;56.02
46223;BME280;31943;51.410;7.564;2023-07-08T03:28:24;100326.66;;;17.49;55.95
46223;BME280;31943;51.410;7.564;2023-07-08T03:30:52;100322.25;;;17.48;56.01
46223;BME280;31943;51.410;7.564;2023-07-08T03:33:17;100324.03;;;17.48;56.08
46223;BME280;31943;51.410;7.564;2023-07-08T03:35:43;100319.66;;;17.47;56.13
46223;BME280;31943;51.410;7.564;2023-07-08T03:38:09;100324.97;;;17.45;56.20
46223;BME280;31943;51.410;7.564;2023-07-08T03:40:36;100326.69;;;17.46;56.67
46223;BME280;31943;51.410;7.564;2023-07-08T03:43:03;100329.31;;;17.46;56.59
46223;BME280;31943;51.410;7.564;2023-07-08T03:45:29;100326.75;;;17.45;56.33
46223;BME280;31943;51.410;7.564;2023-07-08T03:47:54;100332.03;;;17.43;56.37
46223;BME280;31943;51.410;7.564;2023-07-08T03:50:22;100325.06;;;17.39;56.50
46223;BME280;31943;51.410;7.564;2023-07-08T03:52:49;100330.34;;;17.39;56.69
46223;BME280;31943;51.410;7.564;2023-07-08T03:55:18;100340.91;;;17.39;56.63
46223;BME280;31943;51.410;7.564;2023-07-08T03:57:48;100340.91;;;17.39;56.67
46223;BME280;31943;51.410;7.564;2023-07-08T04:00:14;100342.69;;;17.37;56.92
46223;BME280;31943;51.410;7.564;2023-07-08T04:02:40;100343.56;;;17.37;56.90
46223;BME280;31943;51.410;7.564;2023-07-08T04:05:06;100341.72;;;17.43;56.79
46223;BME280;31943;51.410;7.564;2023-07-08T04:07:34;100338.19;;;17.42;56.62
46223;BME280;31943;51.410;7.564;2023-07-08T04:10:01;100352.22;;;17.44;56.91
46223;BME280;31943;51.410;7.564;2023-07-08T04:12:27;100339.94;;;17.45;56.86
46223;BME280;31943;51.410;7.564;2023-07-08T04:14:56;100341.69;;;17.44;56.88
46223;BME280;31943;51.410;7.564;2023-07-08T04:17:24;100347.84;;;17.45;56.98
46223;BME280;31943;51.410;7.564;2023-07-08T04:19:54;100348.72;;;17.45;57.19
46223;BME280;31943;51.410;7.564;2023-07-08T04:22:21;100343.44;;;17.45;57.17
46223;BME280;31943;51.410;7.564;2023-07-08T04:24:47;100345.16;;;17.46;57.42
46223;BME280;31943;51.410;7.564;2023-07-08T04:27:14;100341.63;;;17.47;57.38
46223;BME280;31943;51.410;7.564;2023-07-08T04:29:41;100343.38;;;17.48;57.83
46223;BME280;31943;51.410;7.564;2023-07-08T04:32:12;100350.41;;;17.48;57.30
46223;BME280;31943;51.410;7.564;2023-07-08T04:34:42;100350.41;;;17.49;58.16
46223;BME280;31943;51.410;7.564;2023-07-08T04:37:11;100347.75;;;17.49;58.10
46223;BME280;31943;51.410;7.564;2023-07-08T04:39:36;100355.69;;;17.48;57.85
46223;BME280;31943;51.410;7.564;2023-07-08T04:42:02;100353.91;;;17.48;58.39
46223;BME280;31943;51.410;7.564;2023-07-08T04:44:28;100353.91;;;17.48;58.18
46223;BME280;31943;51.410;7.564;2023-07-08T04:46:55;100358.31;;;17.49;58.12
46223;BME280;31943;51.410;7.564;2023-07-08T04:49:24;100355.66;;;17.51;57.80
46223;BME280;31943;51.410;7.564;2023-07-08T04:51:50;100361.75;;;17.54;58.04
46223;BME280;31943;51.410;7.564;2023-07-08T04:54:16;100361.69;;;17.56;58.51
46223;BME280;31943;51.410;7.564;2023-07-08T04:56:44;100359.97;;;17.56;58.57
46223;BME280;31943;51.410;7.564;2023-07-08T04:59:13;100361.69;;;17.56;59.03
46223;BME280;31943;51.410;7.564;2023-07-08T05:01:41;100362.53;;;17.58;58.72
46223;BME280;31943;51.410;7.564;2023-07-08T05:04:09;100373.06;;;17.61;58.50
46223;BME280;31943;51.410;7.564;2023-07-08T05:06:36;100365.09;;;17.64;58.27
46223;BME280;31943;51.410;7.564;2023-07-08T05:09:03;100366.81;;;17.67;58.90
46223;BME280;31943;51.410;7.564;2023-07-08T05:11:29;100367.69;;;17.66;58.42
46223;BME280;31943;51.410;7.564;2023-07-08T05:13:56;100360.63;;;17.68;58.59
46223;BME280;31943;51.410;7.564;2023-07-08T05:16:25;100364.09;;;17.71;59.23
46223;BME280;31943;51.410;7.564;2023-07-08T05:18:51;100361.41;;;17.74;59.55
46223;BME280;31943;51.410;7.564;2023-07-08T05:21:18;100371.00;;;17.80;59.05
46223;BME280;31943;51.410;7.564;2023-07-08T05:23:47;100358.59;;;17.85;59.21
46223;BME280;31943;51.410;7.564;2023-07-08T05:26:13;100368.19;;;17.89;58.79
46223;BME280;31943;51.410;7.564;2023-07-08T05:28:39;100366.31;;;17.96;58.47
46223;BME280;31943;51.410;7.564;2023-07-08T05:31:05;100356.53;;;18.01;58.07
46223;BME280;31943;51.410;7.564;2023-07-08T05:33:32;100358.16;;;18.08;58.53
46223;BME280;31943;51.410;7.564;2023-07-08T05:35:57;100364.19;;;18.15;58.85
46223;BME280;31943;51.410;7.564;2023-07-08T05:38:24;100366.69;;;18.23;58.88
46223;BME280;31943;51.410;7.564;2023-07-08T05:40:54;100355.13;;;18.28;58.07
46223;BME280;31943;51.410;7.564;2023-07-08T05:43:20;100361.19;;;18.35;58.07
46223;BME280;31943;51.410;7.564;2023-07-08T05:45:47;100361.88;;;18.43;57.89
46223;BME280;31943;51.410;7.564;2023-07-08T05:48:12;100360.91;;;18.49;57.90
46223;BME280;31943;51.410;7.564;2023-07-08T05:50:39;100360.78;;;18.53;57.27
46223;BME280;31943;51.410;7.564;2023-07-08T05:53:05;100357.13;;;18.61;56.90
46223;BME280;31943;51.410;7.564;2023-07-08T05:55:32;100358.78;;;18.66;56.85
46223;BME280;31943;51.410;7.564;2023-07-08T05:57:59;100354.22;;;18.73;57.32
46223;BME280;31943;51.410;7.564;2023-07-08T06:00:25;100353.22;;;18.80;56.74
46223;BME280;31943;51.410;7.564;2023-07-08T06:02:51;100358.25;;;18.91;56.56
46223;BME280;31943;51.410;7.564;2023-07-08T06:05:17;100365.88;;;19.03;56.53
46223;BME280;31943;51.410;7.564;2023-07-08T06:07:42;100354.16;;;19.15;55.93
46223;BME280;31943;51.410;7.564;2023-07-08T06:10:09;100348.56;;;19.29;55.51
46223;BME280;31943;51.410;7.564;2023-07-08T06:12:34;100353.50;;;19.43;55.42
46223;BME280;31943;51.410;7.564;2023-07-08T06:15:02;100354.81;;;19.61;55.60
46223;BME280;31943;51.410;7.564;2023-07-08T06:17:27;100350.00;;;19.78;54.23
46223;BME280;31943;51.410;7.564;2023-07-08T06:19:53;100350.31;;;19.99;55.04
46223;BME280;31943;51.410;7.564;2023-07-08T06:22:18;100353.34;;;20.18;54.03
46223;BME280;31943;51.410;7.564;2023-07-08T06:24:44;100345.66;;;20.38;54.28
46223;BME280;31943;51.410;7.564;2023-07-08T06:27:10;100344.19;;;20.61;54.49
46223;BME280;31943;51.410;7.564;2023-07-08T06:29:35;100342.72;;;20.80;53.87
46223;BME280;31943;51.410;7.564;2023-07-08T06:32:03;100344.88;;;20.96;53.91
46223;BME280;31943;51.410;7.564;2023-07-08T06:34:28;100350.47;;;21.14;53.69
46223;BME280;31943;51.410;7.564;2023-07-08T06:36:54;100340.13;;;21.33;53.07
46223;BME280;31943;51.410;7.564;2023-07-08T06:39:20;100339.53;;;21.52;52.67
46223;BME280;31943;51.410;7.564;2023-07-08T06:41:45;100338.91;;;21.70;52.46
46223;BME280;31943;51.410;7.564;2023-07-08T06:44:11;100341.81;;;21.89;52.19
46223;BME280;31943;51.410;7.564;2023-07-08T06:46:37;100343.78;;;22.08;52.62
46223;BME280;31943;51.410;7.564;2023-07-08T06:49:04;100344.06;;;22.25;52.22
46223;BME280;31943;51.410;7.564;2023-07-08T06:51:30;100341.66;;;22.43;52.17
46223;BME280;31943;51.410;7.564;2023-07-08T06:53:55;100345.50;;;22.58;52.09
46223;BME280;31943;51.410;7.564;2023-07-08T06:56:21;100337.75;;;22.75;51.58
46223;BME280;31943;51.410;7.564;2023-07-08T06:58:47;100346.94;;;22.90;50.75
46223;BME280;31943;51.410;7.564;2023-07-08T07:01:12;100345.38;;;23.08;50.23
46223;BME280;31943;51.410;7.564;2023-07-08T07:03:38;100333.97;;;23.26;50.13
46223;BME280;31943;51.410;7.564;2023-07-08T07:08:31;100347.50;;;23.64;50.15
46223;BME280;31943;51.410;7.564;2023-07-08T07:10:57;100337.84;;;23.82;50.30
46223;BME280;31943;51.410;7.564;2023-07-08T07:13:24;100339.69;;;24.01;50.35
46223;BME280;31943;51.410;7.564;2023-07-08T07:15:50;100331.75;;;24.20;49.72
46223;BME280;31943;51.410;7.564;2023-07-08T07:18:16;100337.91;;;24.41;49.91
46223;BME280;31943;51.410;7.564;2023-07-08T07:20:48;100335.88;;;24.66;49.06
46223;BME280;31943;51.410;7.564;2023-07-08T07:23:17;100336.66;;;24.88;48.52
46223;BME280;31943;51.410;7.564;2023-07-08T07:25:45;100339.28;;;25.06;49.06
46223;BME280;31943;51.410;7.564;2023-07-08T07:28:11;100337.34;;;25.29;47.71
46223;BME280;31943;51.410;7.564;2023-07-08T07:30:36;100327.06;;;25.39;43.14
46223;BME280;31943;51.410;7.564;2023-07-08T07:33:02;100339.47;;;25.57;40.84
46223;BME280;31943;51.410;7.564;2023-07-08T07:35:28;100334.97;;;25.75;40.99
46223;BME280;31943;51.410;7.564;2023-07-08T07:37:54;100332.34;;;25.93;40.56
46223;BME280;31943;51.410;7.564;2023-07-08T07:40:23;100326.03;;;26.11;37.95
46223;BME280;31943;51.410;7.564;2023-07-08T07:42:49;100341.06;;;26.30;38.09
46223;BME280;31943;51.410;7.564;2023-07-08T07:45:16;100341.38;;;26.41;37.56
46223;BME280;31943;51.410;7.564;2023-07-08T07:47:41;100334.28;;;26.56;37.16
46223;BME280;31943;51.410;7.564;2023-07-08T07:50:08;100335.22;;;26.72;37.62
46223;BME280;31943;51.410;7.564;2023-07-08T07:52:35;100333.66;;;26.84;36.43
46223;BME280;31943;51.410;7.564;2023-07-08T07:55:02;100332.97;;;26.96;36.38
46223;BME280;31943;51.410;7.564;2023-07-08T07:57:30;100328.63;;;27.10;36.91
46223;BME280;31943;51.410;7.564;2023-07-08T07:59:56;100324.28;;;27.23;36.40
46223;BME280;31943;51.410;7.564;2023-07-08T08:02:21;100322.81;;;27.33;36.26
46223;BME280;31943;51.410;7.564;2023-07-08T08:04:49;100329.38;;;27.44;37.07
46223;BME280;31943;51.410;7.564;2023-07-08T08:07:15;100331.50;;;27.53;35.91
46223;BME280;31943;51.410;7.564;2023-07-08T08:09:40;100336.50;;;27.59;34.80
46223;BME280;31943;51.410;7.564;2023-07-08T08:12:08;100332.13;;;27.72;35.23
46223;BME280;31943;51.410;7.564;2023-07-08T08:14:35;100333.47;;;27.79;34.68
46223;BME280;31943;51.410;7.564;2023-07-08T08:17:00;100337.28;;;27.91;34.47
46223;BME280;31943;51.410;7.564;2023-07-08T08:19:26;100340.84;;;28.06;35.33
46223;BME280;31943;51.410;7.564;2023-07-08T08:21:52;100335.75;;;28.16;34.67
46223;BME280;31943;51.410;7.564;2023-07-08T08:24:18;100339.72;;;28.25;33.80
46223;BME280;31943;51.410;7.564;2023-07-08T08:26:43;100345.16;;;28.37;34.88
46223;BME280;31943;51.410;7.564;2023-07-08T08:29:09;100343.53;;;28.49;34.01
46223;BME280;31943;51.410;7.564;2023-07-08T08:31:36;100340.00;;;28.63;34.21
46223;BME280;31943;51.410;7.564;2023-07-08T08:34:02;100343.31;;;28.81;33.37
46223;BME280;31943;51.410;7.564;2023-07-08T08:36:27;100340.38;;;28.98;33.37
46223;BME280;31943;51.410;7.564;2023-07-08T08:38:53;100344.69;;;29.15;33.29
46223;BME280;31943;51.410;7.564;2023-07-08T08:41:21;100342.66;;;29.19;32.56
46223;BME280;31943;51.410;7.564;2023-07-08T08:43:50;100345.22;;;29.21;32.94
46223;BME280;31943;51.410;7.564;2023-07-08T08:46:26;100342.69;;;29.32;32.58
46223;BME280;31943;51.410;7.564;2023-07-08T08:48:59;100342.53;;;29.48;33.32
46223;BME280;31943;51.410;7.564;2023-07-08T08:51:30;100350.25;;;29.40;32.74
46223;BME280;31943;51.410;7.564;2023-07-08T08:53:57;100352.00;;;29.53;32.67
46223;BME280;31943;51.410;7.564;2023-07-08T08:56:25;100342.59;;;29.73;32.55
46223;BME280;31943;51.410;7.564;2023-07-08T08:58:59;100353.28;;;29.88;32.58
46223;BME280;31943;51.410;7.564;2023-07-08T09:01:27;100343.81;;;29.95;32.36
46223;BME280;31943;51.410;7.564;2023-07-08T09:03:59;100345.53;;;30.22;31.80
46223;BME280;31943;51.410;7.564;2023-07-08T09:06:28;100344.25;;;30.40;32.38
46223;BME280;31943;51.410;7.564;2023-07-08T09:08:55;100346.84;;;30.54;31.48
46223;BME280;31943;51.410;7.564;2023-07-08T09:11:31;100349.72;;;30.51;31.98
46223;BME280;31943;51.410;7.564;2023-07-08T09:14:01;100342.00;;;30.47;31.55
46223;BME280;31943;51.410;7.564;2023-07-08T09:16:37;100339.34;;;30.71;31.37
46223;BME280;31943;51.410;7.564;2023-07-08T09:19:10;100336.97;;;30.92;31.02
46223;BME280;31943;51.410;7.564;2023-07-08T09:21:41;100343.56;;;31.12;31.17
46223;BME280;31943;51.410;7.564;2023-07-08T09:24:16;100353.19;;;31.27;30.88
46223;BME280;31943;51.410;7.564;2023-07-08T09:26:46;100347.22;;;31.35;30.01
46223;BME280;31943;51.410;7.564;2023-07-08T09:29:12;100358.84;;;31.36;29.81
46223;BME280;31943;51.410;7.564;2023-07-08T09:31:40;100345.22;;;31.26;29.22
46223;BME280;31943;51.410;7.564;2023-07-08T09:34:10;100352.28;;;31.16;29.85
46223;BME280;31943;51.410;7.564;2023-07-08T09:36:38;100354.97;;;30.91;30.85
46223;BME280;31943;51.410;7.564;2023-07-08T09:39:10;100359.94;;;30.72;29.76
46223;BME280;31943;51.410;7.564;2023-07-08T09:41:38;100353.69;;;30.71;29.04
46223;BME280;31943;51.410;7.564;2023-07-08T09:44:08;100357.19;;;30.98;28.52
46223;BME280;31943;51.410;7.564;2023-07-08T09:46:43;100351.81;;;31.22;28.79
46223;BME280;31943;51.410;7.564;2023-07-08T09:52:06;100347.31;;;31.46;28.23
46223;BME280;31943;51.410;7.564;2023-07-08T09:54:33;100349.81;;;31.61;30.21
46223;BME280;31943;51.410;7.564;2023-07-08T09:57:01;100345.06;;;31.76;28.15
46223;BME280;31943;51.410;7.564;2023-07-08T09:59:30;100351.59;;;31.84;26.95
46223;BME280;31943;51.410;7.564;2023-07-08T10:02:00;100351.00;;;31.92;27.17
46223;BME280;31943;51.410;7.564;2023-07-08T10:04:28;100347.28;;;31.93;26.96
46223;BME280;31943;51.410;7.564;2023-07-08T10:06:54;100350.63;;;31.97;26.10
46223;BME280;31943;51.410;7.564;2023-07-08T10:09:23;100356.63;;;32.00;26.24
46223;BME280;31943;51.410;7.564;2023-07-08T10:11:53;100351.03;;;32.03;26.56
46223;BME280;31943;51.410;7.564;2023-07-08T10:14:25;100354.72;;;32.14;26.10
46223;BME280;31943;51.410;7.564;2023-07-08T10:16:51;100349.47;;;32.35;26.38
46223;BME280;31943;51.410;7.564;2023-07-08T10:19:19;100346.53;;;32.49;24.73
46223;BME280;31943;51.410;7.564;2023-07-08T10:21:51;100354.38;;;32.63;25.75
46223;BME280;31943;51.410;7.564;2023-07-08T10:24:28;100353.88;;;32.69;25.43
46223;BME280;31943;51.410;7.564;2023-07-08T10:26:58;100347.75;;;32.67;25.85
46223;BME280;31943;51.410;7.564;2023-07-08T10:29:32;100351.56;;;32.76;25.46
46223;BME280;31943;51.410;7.564;2023-07-08T10:32:08;100357.69;;;32.78;26.36
46223;BME280;31943;51.410;7.564;2023-07-08T10:34:43;100335.97;;;32.80;24.49
46223;BME280;31943;51.410;7.564;2023-07-08T10:37:22;100347.00;;;32.88;25.69
46223;BME280;31943;51.410;7.564;2023-07-08T10:40:00;100342.56;;;32.87;26.50
46223;BME280;31943;51.410;7.564;2023-07-08T10:42:43;100342.94;;;32.94;26.08
46223;BME280;31943;51.410;7.564;2023-07-08T10:45:16;100335.53;;;33.07;25.68
46223;BME280;31943;51.410;7.564;2023-07-08T10:47:55;100336.00;;;33.12;25.64
46223;BME280;31943;51.410;7.564;2023-07-08T10:50:31;100335.25;;;33.21;25.51
46223;BME280;31943;51.410;7.564;2023-07-08T10:53:15;100332.44;;;33.23;25.12
46223;BME280;31943;51.410;7.564;2023-07-08T10:55:49;100335.03;;;33.13;23.73
46223;BME280;31943;51.410;7.564;2023-07-08T10:58:38;100331.53;;;33.22;25.75
46223;BME280;31943;51.410;7.564;2023-07-08T11:01:19;100328.28;;;33.40;24.35
46223;BME280;31943;51.410;7.564;2023-07-08T11:04:19;100331.06;;;33.49;24.72
46223;BME280;31943;51.410;7.564;2023-07-08T11:06:52;100325.94;;;33.46;24.52
46223;BME280;31943;51.410;7.564;2023-07-08T11:09:21;100317.28;;;33.53;24.80
46223;BME280;31943;51.410;7.564;2023-07-08T11:11:54;100319.69;;;33.67;24.13
46223;BME280;31943;51.410;7.564;2023-07-08T11:14:26;100322.75;;;33.74;23.56
46223;BME280;31943;51.410;7.564;2023-07-08T11:17:00;100314.00;;;33.91;24.82
46223;BME280;31943;51.410;7.564;2023-07-08T11:19:34;100315.19;;;33.98;25.58
46223;BME280;31943;51.410;7.564;2023-07-08T11:22:03;100308.63;;;34.01;23.28
46223;BME280;31943;51.410;7.564;2023-07-08T11:24:39;100303.53;;;34.07;23.67
46223;BME280;31943;51.410;7.564;2023-07-08T11:27:15;100302.28;;;34.12;22.39
46223;BME280;31943;51.410;7.564;2023-07-08T11:29:46;100305.00;;;34.12;23.56
46223;BME280;31943;51.410;7.564;2023-07-08T11:32:19;100301.28;;;34.13;24.07
46223;BME280;31943;51.410;7.564;2023-07-08T11:34:48;100297.72;;;34.12;23.77
46223;BME280;31943;51.410;7.564;2023-07-08T11:37:15;100297.38;;;34.17;24.15
46223;BME280;31943;51.410;7.564;2023-07-08T11:39:44;100290.72;;;34.10;23.08
46223;BME280;31943;51.410;7.564;2023-07-08T11:42:19;100287.56;;;34.04;24.43
46223;BME280;31943;51.410;7.564;2023-07-08T11:44:48;100285.66;;;34.16;24.13
46223;BME280;31943;51.410;7.564;2023-07-08T11:47:18;100291.28;;;34.34;25.23
46223;BME280;31943;51.410;7.564;2023-07-08T11:49:46;100284.63;;;34.38;24.33
46223;BME280;31943;51.410;7.564;2023-07-08T11:52:16;100277.50;;;34.47;24.59
46223;BME280;31943;51.410;7.564;2023-07-08T11:54:45;100275.38;;;34.51;25.75
46223;BME280;31943;51.410;7.564;2023-07-08T11:57:17;100274.69;;;34.58;25.63
46223;BME280;31943;51.410;7.564;2023-07-08T11:59:43;100284.16;;;34.74;24.42
46223;BME280;31943;51.410;7.564;2023-07-08T12:02:13;100275.88;;;34.85;23.35
46223;BME280;31943;51.410;7.564;2023-07-08T12:04:56;100271.75;;;34.91;23.65
46223;BME280;31943;51.410;7.564;2023-07-08T12:07:31;100280.91;;;34.90;24.02
46223;BME280;31943;51.410;7.564;2023-07-08T12:10:04;100278.91;;;34.92;24.24
46223;BME280;31943;51.410;7.564;2023-07-08T12:12:34;100279.88;;;34.91;23.14
46223;BME280;31943;51.410;7.564;2023-07-08T12:15:10;100278.31;;;34.98;23.76
46223;BME280;31943;51.410;7.564;2023-07-08T12:17:37;100270.34;;;35.06;22.82
46223;BME280;31943;51.410;7.564;2023-07-08T12:20:13;100262.47;;;35.13;22.58
46223;BME280;31943;51.410;7.564;2023-07-08T12:22:42;100257.25;;;35.21;21.19
46223;BME280;31943;51.410;7.564;2023-07-08T12:25:12;100267.66;;;35.25;23.32
46223;BME280;31943;51.410;7.564;2023-07-08T12:27:40;100270.78;;;35.40;23.69
46223;BME280;31943;51.410;7.564;2023-07-08T12:30:07;100262.19;;;35.55;23.01
46223;BME280;31943;51.410;7.564;2023-07-08T12:32:34;100263.31;;;35.62;23.07
46223;BME280;31943;51.410;7.564;2023-07-08T12:35:00;100262.44;;;35.61;22.31
46223;BME280;31943;51.410;7.564;2023-07-08T12:37:26;100265.63;;;35.67;21.87
46223;BME280;31943;51.410;7.564;2023-07-08T12:39:55;100258.59;;;35.74;21.28
46223;BME280;31943;51.410;7.564;2023-07-08T12:42:23;100259.53;;;35.92;21.74
46223;BME280;31943;51.410;7.564;2023-07-08T12:44:49;100267.50;;;36.03;22.43
46223;BME280;31943;51.410;7.564;2023-07-08T12:47:19;100262.06;;;36.03;21.82
46223;BME280;31943;51.410;7.564;2023-07-08T12:49:46;100259.50;;;36.02;20.11
46223;BME280;31943;51.410;7.564;2023-07-08T12:52:22;100268.59;;;36.11;21.58
46223;BME280;31943;51.410;7.564;2023-07-08T12:54:48;100268.44;;;36.22;21.20
46223;BME280;31943;51.410;7.564;2023-07-08T12:57:14;100252.41;;;36.29;21.61
46223;BME280;31943;51.410;7.564;2023-07-08T12:59:42;100260.31;;;36.40;22.62
46223;BME280;31943;51.410;7.564;2023-07-08T13:02:15;100255.66;;;36.60;22.12